Centerdale, Iowa
Current Conditions -  °F | °C
As of 2:52 AM on Friday 31 Oct 2014 (Local Time) from KIOW Reporting Station
Overcast Overcast  
Wind Chill: 35°   Ceiling: 4500
Heat Index: 44°   Visibility: 10mi
Dew Point: 29°   Wind: 22mph
Humidity: 55%   Direction: 350°N
Pressure: 30.21"   Gusts: 28mph
Location:  41.5542°N, 91.2913°W
Report Text: KIOW 310752Z AUTO 35019G24KT 10SM OVC045 07/M02 A3021 RMK AO2 PK WND 33026/0724 SLP234 T00671017
Loading
Personal Weather Stations






























Interactive Weather Map New forecast layout! Learn more

10-Day Weather Forecast

Advertisements
Track Severe Weather on mobile